sensor_id;sensor_type;location;lat;lon;timestamp;pressure;altitude;pressure_sealevel;temperature;humidity
42691;BME280;28306;55.744;37.578;2022-09-27T00:00:03;99435.38;;;15.05;48.38
42691;BME280;28306;55.744;37.578;2022-09-27T00:02:37;99476.41;;;15.32;47.42
42691;BME280;28306;55.744;37.578;2022-09-27T00:05:03;99446.50;;;15.16;47.63
42691;BME280;28306;55.744;37.578;2022-09-27T00:07:28;99475.38;;;15.34;48.14
42691;BME280;28306;55.744;37.578;2022-09-27T00:09:54;99474.53;;;15.26;47.67
42691;BME280;28306;55.744;37.578;2022-09-27T00:12:19;99470.44;;;15.24;47.57
42691;BME280;28306;55.744;37.578;2022-09-27T00:14:45;99475.38;;;15.27;47.55
42691;BME280;28306;55.744;37.578;2022-09-27T00:17:11;99482.78;;;15.25;47.38
42691;BME280;28306;55.744;37.578;2022-09-27T00:19:36;99480.31;;;15.23;47.45
42691;BME280;28306;55.744;37.578;2022-09-27T00:22:02;99487.75;;;15.21;48.01
42691;BME280;28306;55.744;37.578;2022-09-27T00:24:28;99473.94;;;15.18;47.72
42691;BME280;28306;55.744;37.578;2022-09-27T00:26:53;99478.88;;;15.21;47.77
42691;BME280;28306;55.744;37.578;2022-09-27T00:29:19;99466.72;;;15.11;47.37
42691;BME280;28306;55.744;37.578;2022-09-27T00:31:45;99487.13;;;15.19;47.75
42691;BME280;28306;55.744;37.578;2022-09-27T00:34:23;99476.41;;;15.19;47.70
42691;BME280;28306;55.744;37.578;2022-09-27T00:36:49;99474.56;;;15.13;47.44
42691;BME280;28306;55.744;37.578;2022-09-27T00:39:16;99476.81;;;15.16;47.46
42691;BME280;28306;55.744;37.578;2022-09-27T00:41:42;99483.81;;;15.17;48.11
42691;BME280;28306;55.744;37.578;2022-09-27T00:47:24;99482.38;;;15.14;48.13
42691;BME280;28306;55.744;37.578;2022-09-27T00:52:29;99493.50;;;15.11;47.80
42691;BME280;28306;55.744;37.578;2022-09-27T00:55:03;99496.41;;;15.10;48.41
42691;BME280;28306;55.744;37.578;2022-09-27T00:57:31;99500.72;;;15.24;47.86
42691;BME280;28306;55.744;37.578;2022-09-27T01:00:02;99490.22;;;15.09;47.96
42691;BME280;28306;55.744;37.578;2022-09-27T01:02:28;99490.63;;;15.06;47.85
42691;BME280;28306;55.744;37.578;2022-09-27T01:04:56;99484.22;;;15.01;47.71
42691;BME280;28306;55.744;37.578;2022-09-27T01:07:21;99484.63;;;14.98;47.68
42691;BME280;28306;55.744;37.578;2022-09-27T01:09:47;99489.56;;;15.01;47.64
42691;BME280;28306;55.744;37.578;2022-09-27T01:15:09;99476.78;;;14.96;47.64
42691;BME280;28306;55.744;37.578;2022-09-27T01:26:15;99492.25;;;15.07;48.96
42691;BME280;28306;55.744;37.578;2022-09-27T01:34:33;99488.97;;;14.99;47.63
42691;BME280;28306;55.744;37.578;2022-09-27T01:37:26;99484.63;;;15.04;49.10
42691;BME280;28306;55.744;37.578;2022-09-27T01:40:08;99490.59;;;15.00;48.41
42691;BME280;28306;55.744;37.578;2022-09-27T01:43:08;99489.56;;;15.01;48.74
42691;BME280;28306;55.744;37.578;2022-09-27T01:45:44;99493.25;;;14.93;48.35
42691;BME280;28306;55.744;37.578;2022-09-27T01:48:29;99489.97;;;14.98;49.41
42691;BME280;28306;55.744;37.578;2022-09-27T01:51:08;99487.28;;;14.98;48.35
42691;BME280;28306;55.744;37.578;2022-09-27T01:53:53;99482.34;;;15.01;48.33
42691;BME280;28306;55.744;37.578;2022-09-27T01:56:39;99480.69;;;14.93;48.15
42691;BME280;28306;55.744;37.578;2022-09-27T01:59:30;99469.56;;;14.90;49.38
42691;BME280;28306;55.744;37.578;2022-09-27T02:02:11;99461.53;;;14.83;48.52
42691;BME280;28306;55.744;37.578;2022-09-27T02:05:00;99469.34;;;14.91;48.28
42691;BME280;28306;55.744;37.578;2022-09-27T02:07:33;99480.06;;;14.91;48.64
42691;BME280;28306;55.744;37.578;2022-09-27T02:10:04;99465.00;;;14.84;48.54
42691;BME280;28306;55.744;37.578;2022-09-27T02:13:15;99473.91;;;14.98;48.49
42691;BME280;28306;55.744;37.578;2022-09-27T02:21:14;99474.91;;;14.83;48.35
42691;BME280;28306;55.744;37.578;2022-09-27T02:23:46;99466.03;;;14.83;49.50
42691;BME280;28306;55.744;37.578;2022-09-27T02:26:43;99478.00;;;14.93;48.81
42691;BME280;28306;55.744;37.578;2022-09-27T02:29:56;99485.22;;;14.86;48.28
42691;BME280;28306;55.744;37.578;2022-09-27T02:32:01;99478.41;;;14.84;47.91
42691;BME280;28306;55.744;37.578;2022-09-27T02:34:28;99473.25;;;14.82;48.48
42691;BME280;28306;55.744;37.578;2022-09-27T02:36:56;99475.09;;;14.75;48.18
42691;BME280;28306;55.744;37.578;2022-09-27T02:39:22;99486.44;;;14.77;48.09
42691;BME280;28306;55.744;37.578;2022-09-27T02:41:56;99462.28;;;14.64;48.09
42691;BME280;28306;55.744;37.578;2022-09-27T02:44:25;99475.72;;;14.70;48.63
42691;BME280;28306;55.744;37.578;2022-09-27T02:49:48;99487.44;;;14.76;48.01
42691;BME280;28306;55.744;37.578;2022-09-27T02:52:58;99490.56;;;14.80;48.53
42691;BME280;28306;55.744;37.578;2022-09-27T03:04:54;99489.91;;;14.71;48.42
42691;BME280;28306;55.744;37.578;2022-09-27T03:07:22;99490.72;;;14.65;48.59
42691;BME280;28306;55.744;37.578;2022-09-27T03:09:50;99484.34;;;14.66;49.96
42691;BME280;28306;55.744;37.578;2022-09-27T03:12:18;99501.69;;;14.83;49.52
42691;BME280;28306;55.744;37.578;2022-09-27T03:14:48;99500.22;;;14.81;48.59
42691;BME280;28306;55.744;37.578;2022-09-27T03:17:36;99497.97;;;14.77;48.46
42691;BME280;28306;55.744;37.578;2022-09-27T03:20:21;99501.28;;;14.86;49.72
42691;BME280;28306;55.744;37.578;2022-09-27T03:22:57;99500.03;;;14.89;48.98
42691;BME280;28306;55.744;37.578;2022-09-27T03:25:23;99502.09;;;14.87;48.74
42691;BME280;28306;55.744;37.578;2022-09-27T03:27:48;99504.16;;;14.85;48.37
42691;BME280;28306;55.744;37.578;2022-09-27T03:30:14;99495.72;;;14.81;48.48
42691;BME280;28306;55.744;37.578;2022-09-27T03:32:44;99507.84;;;14.77;48.61
42691;BME280;28306;55.744;37.578;2022-09-27T03:35:48;99507.44;;;14.80;48.87
42691;BME280;28306;55.744;37.578;2022-09-27T03:38:14;99508.47;;;14.79;48.51
42691;BME280;28306;55.744;37.578;2022-09-27T03:40:40;99499.81;;;14.77;48.46
42691;BME280;28306;55.744;37.578;2022-09-27T03:43:06;99495.28;;;14.71;48.26
42691;BME280;28306;55.744;37.578;2022-09-27T03:45:32;99497.34;;;14.75;48.22
42691;BME280;28306;55.744;37.578;2022-09-27T03:48:02;99504.56;;;14.82;48.16
42691;BME280;28306;55.744;37.578;2022-09-27T03:50:28;99503.53;;;14.83;48.49
42691;BME280;28306;55.744;37.578;2022-09-27T03:52:54;99495.72;;;14.81;47.85
42691;BME280;28306;55.744;37.578;2022-09-27T03:55:20;99501.28;;;14.80;47.77
42691;BME280;28306;55.744;37.578;2022-09-27T03:57:46;99494.06;;;14.80;48.88
42691;BME280;28306;55.744;37.578;2022-09-27T04:00:13;99489.72;;;14.79;48.71
42691;BME280;28306;55.744;37.578;2022-09-27T04:02:41;99508.47;;;14.86;48.32
42691;BME280;28306;55.744;37.578;2022-09-27T04:05:22;99512.81;;;14.87;48.64
42691;BME280;28306;55.744;37.578;2022-09-27T04:07:51;99500.66;;;14.84;48.85
42691;BME280;28306;55.744;37.578;2022-09-27T04:10:18;99507.88;;;14.84;48.16
42691;BME280;28306;55.744;37.578;2022-09-27T04:12:44;99509.13;;;14.81;48.33
42691;BME280;28306;55.744;37.578;2022-09-27T04:15:10;99506.19;;;14.76;48.24
42691;BME280;28306;55.744;37.578;2022-09-27T04:17:48;99509.47;;;14.71;48.25
42691;BME280;28306;55.744;37.578;2022-09-27T04:20:34;99501.44;;;14.71;48.22
42691;BME280;28306;55.744;37.578;2022-09-27T04:23:06;99501.22;;;14.66;48.48
42691;BME280;28306;55.744;37.578;2022-09-27T04:25:34;99519.78;;;14.74;48.55
42691;BME280;28306;55.744;37.578;2022-09-27T04:28:07;99512.34;;;14.70;48.31
42691;BME280;28306;55.744;37.578;2022-09-27T04:30:33;99499.50;;;14.58;48.44
42691;BME280;28306;55.744;37.578;2022-09-27T04:33:04;99515.47;;;14.73;49.03
42691;BME280;28306;55.744;37.578;2022-09-27T04:35:48;99510.13;;;14.80;48.79
42691;BME280;28306;55.744;37.578;2022-09-27T04:38:36;99510.75;;;14.89;49.53
42691;BME280;28306;55.744;37.578;2022-09-27T04:41:02;99515.72;;;14.92;48.78
42691;BME280;28306;55.744;37.578;2022-09-27T04:43:32;99510.16;;;14.93;48.47
42691;BME280;28306;55.744;37.578;2022-09-27T04:45:57;99508.69;;;14.84;48.29
42691;BME280;28306;55.744;37.578;2022-09-27T04:48:23;99513.63;;;14.81;48.07
42691;BME280;28306;55.744;37.578;2022-09-27T04:50:59;99530.75;;;14.93;48.68
42691;BME280;28306;55.744;37.578;2022-09-27T04:53:27;99521.72;;;14.94;48.73
42691;BME280;28306;55.744;37.578;2022-09-27T04:55:55;99520.88;;;14.93;48.42
42691;BME280;28306;55.744;37.578;2022-09-27T04:58:22;99528.69;;;14.95;48.09
42691;BME280;28306;55.744;37.578;2022-09-27T05:00:48;99523.13;;;14.90;48.46
42691;BME280;28306;55.744;37.578;2022-09-27T05:03:35;99529.09;;;14.92;48.37
42691;BME280;28306;55.744;37.578;2022-09-27T05:06:08;99530.97;;;14.91;48.54
42691;BME280;28306;55.744;37.578;2022-09-27T05:08:34;99524.81;;;14.98;48.68
42691;BME280;28306;55.744;37.578;2022-09-27T05:11:24;99526.44;;;14.92;48.69
42691;BME280;28306;55.744;37.578;2022-09-27T05:14:08;99530.56;;;15.01;48.23
42691;BME280;28306;55.744;37.578;2022-09-27T05:16:46;99526.06;;;15.08;48.90
42691;BME280;28306;55.744;37.578;2022-09-27T05:19:38;99518.22;;;15.07;48.22
42691;BME280;28306;55.744;37.578;2022-09-27T05:22:14;99527.28;;;15.06;48.11
42691;BME280;28306;55.744;37.578;2022-09-27T05:24:40;99517.81;;;15.10;48.64
42691;BME280;28306;55.744;37.578;2022-09-27T05:27:07;99522.97;;;15.11;48.47
42691;BME280;28306;55.744;37.578;2022-09-27T05:29:34;99519.28;;;15.12;47.99
42691;BME280;28306;55.744;37.578;2022-09-27T05:32:08;99521.31;;;15.17;48.83
42691;BME280;28306;55.744;37.578;2022-09-27T05:34:33;99517.03;;;15.16;48.21
42691;BME280;28306;55.744;37.578;2022-09-27T05:36:59;99516.41;;;15.21;47.99
42691;BME280;28306;55.744;37.578;2022-09-27T05:39:27;99527.53;;;15.24;47.91
42691;BME280;28306;55.744;37.578;2022-09-27T05:41:53;99522.19;;;15.24;48.27
42691;BME280;28306;55.744;37.578;2022-09-27T05:44:20;99517.84;;;15.23;48.31
42691;BME280;28306;55.744;37.578;2022-09-27T05:46:55;99497.00;;;15.12;48.38
42691;BME280;28306;55.744;37.578;2022-09-27T05:49:21;99515.38;;;15.28;48.49
42691;BME280;28306;55.744;37.578;2022-09-27T05:51:47;99513.31;;;15.30;48.44
42691;BME280;28306;55.744;37.578;2022-09-27T05:54:13;99507.56;;;15.34;48.57
42691;BME280;28306;55.744;37.578;2022-09-27T05:56:38;99467.13;;;15.22;48.58
42691;BME280;28306;55.744;37.578;2022-09-27T05:59:29;99497.66;;;15.47;48.55
42691;BME280;28306;55.744;37.578;2022-09-27T06:02:27;99508.38;;;15.54;48.13
42691;BME280;28306;55.744;37.578;2022-09-27T06:05:11;99480.31;;;15.43;48.27
42691;BME280;28306;55.744;37.578;2022-09-27T06:08:00;99500.13;;;15.62;48.58
42691;BME280;28306;55.744;37.578;2022-09-27T06:10:32;99499.31;;;15.62;48.39
42691;BME280;28306;55.744;37.578;2022-09-27T06:13:07;99499.13;;;15.77;48.85
42691;BME280;28306;55.744;37.578;2022-09-27T06:15:41;99491.88;;;15.71;47.92
42691;BME280;28306;55.744;37.578;2022-09-27T06:18:09;99503.00;;;15.74;48.18
42691;BME280;28306;55.744;37.578;2022-09-27T06:20:36;99476.84;;;15.63;48.22
42691;BME280;28306;55.744;37.578;2022-09-27T06:23:08;99502.19;;;15.74;47.78
42691;BME280;28306;55.744;37.578;2022-09-27T06:25:35;99498.66;;;15.73;47.74
42691;BME280;28306;55.744;37.578;2022-09-27T06:28:20;99499.72;;;15.72;48.06
42691;BME280;28306;55.744;37.578;2022-09-27T06:30:49;99502.00;;;15.82;48.16
42691;BME280;28306;55.744;37.578;2022-09-27T06:33:44;99489.19;;;15.84;47.93
42691;BME280;28306;55.744;37.578;2022-09-27T06:36:10;99491.88;;;15.91;47.53
42691;BME280;28306;55.744;37.578;2022-09-27T06:38:38;99497.44;;;15.96;47.78
42691;BME280;28306;55.744;37.578;2022-09-27T06:41:12;99492.28;;;16.01;47.57
42691;BME280;28306;55.744;37.578;2022-09-27T06:43:57;99464.22;;;15.90;47.49
42691;BME280;28306;55.744;37.578;2022-09-27T06:46:41;99467.31;;;16.00;47.65
42691;BME280;28306;55.744;37.578;2022-09-27T06:49:09;99477.78;;;16.15;47.34
42691;BME280;28306;55.744;37.578;2022-09-27T06:51:35;99473.88;;;16.11;47.32
42691;BME280;28306;55.744;37.578;2022-09-27T06:54:01;99480.22;;;16.24;47.23
42691;BME280;28306;55.744;37.578;2022-09-27T06:56:26;99472.38;;;16.29;47.20
42691;BME280;28306;55.744;37.578;2022-09-27T06:58:52;99485.78;;;16.35;46.84
42691;BME280;28306;55.744;37.578;2022-09-27T07:01:40;99470.47;;;16.36;46.53
42691;BME280;28306;55.744;37.578;2022-09-27T07:04:24;99480.53;;;16.47;46.29
42691;BME280;28306;55.744;37.578;2022-09-27T07:06:56;99487.56;;;16.48;46.40
42691;BME280;28306;55.744;37.578;2022-09-27T07:09:24;99496.44;;;16.49;46.19
42691;BME280;28306;55.744;37.578;2022-09-27T07:11:50;99475.59;;;16.51;46.25
42691;BME280;28306;55.744;37.578;2022-09-27T07:14:16;99491.84;;;16.69;46.18
42691;BME280;28306;55.744;37.578;2022-09-27T07:16:42;99489.50;;;16.80;46.33
42691;BME280;28306;55.744;37.578;2022-09-27T07:19:09;99486.94;;;16.98;46.06
42691;BME280;28306;55.744;37.578;2022-09-27T07:21:37;99486.88;;;17.11;45.40
42691;BME280;28306;55.744;37.578;2022-09-27T07:24:03;99482.91;;;17.14;45.46
42691;BME280;28306;55.744;37.578;2022-09-27T07:26:29;99491.69;;;17.28;44.99
42691;BME280;28306;55.744;37.578;2022-09-27T07:28:55;99498.09;;;17.34;44.58
42691;BME280;28306;55.744;37.578;2022-09-27T07:31:25;99490.25;;;17.32;44.08
42691;BME280;28306;55.744;37.578;2022-09-27T07:33:50;99486.47;;;17.33;44.09
42691;BME280;28306;55.744;37.578;2022-09-27T07:36:17;99481.28;;;17.38;44.29
42691;BME280;28306;55.744;37.578;2022-09-27T07:38:45;99440.69;;;17.15;43.92
42691;BME280;28306;55.744;37.578;2022-09-27T07:41:12;99480.44;;;17.38;43.60
42691;BME280;28306;55.744;37.578;2022-09-27T07:43:40;99454.28;;;17.26;43.49
42691;BME280;28306;55.744;37.578;2022-09-27T07:46:07;99483.09;;;17.44;43.31
42691;BME280;28306;55.744;37.578;2022-09-27T07:48:44;99486.84;;;17.43;43.34
42691;BME280;28306;55.744;37.578;2022-09-27T07:51:29;99484.34;;;17.42;43.52
42691;BME280;28306;55.744;37.578;2022-09-27T07:54:24;99486.00;;;17.43;43.43
42691;BME280;28306;55.744;37.578;2022-09-27T07:57:04;99487.88;;;17.42;43.32
42691;BME280;28306;55.744;37.578;2022-09-27T07:59:33;99487.28;;;17.40;43.35
42691;BME280;28306;55.744;37.578;2022-09-27T08:01:59;99481.72;;;17.35;43.22
42691;BME280;28306;55.744;37.578;2022-09-27T08:04:25;99478.31;;;17.46;43.65
42691;BME280;28306;55.744;37.578;2022-09-27T08:06:50;99483.63;;;17.53;43.41
42691;BME280;28306;55.744;37.578;2022-09-27T08:09:16;99484.41;;;17.60;43.44
42691;BME280;28306;55.744;37.578;2022-09-27T08:11:42;99481.06;;;17.65;43.48
42691;BME280;28306;55.744;37.578;2022-09-27T08:14:11;99484.94;;;17.69;43.23
42691;BME280;28306;55.744;37.578;2022-09-27T08:16:40;99486.38;;;17.72;43.28
42691;BME280;28306;55.744;37.578;2022-09-27T08:19:24;99485.72;;;17.76;43.11
42691;BME280;28306;55.744;37.578;2022-09-27T08:22:11;99485.06;;;17.81;43.28
42691;BME280;28306;55.744;37.578;2022-09-27T08:24:51;99482.72;;;17.84;42.90
42691;BME280;28306;55.744;37.578;2022-09-27T08:27:41;99474.41;;;17.93;42.34
42691;BME280;28306;55.744;37.578;2022-09-27T08:30:21;99477.84;;;18.00;42.24
42691;BME280;28306;55.744;37.578;2022-09-27T08:32:47;99474.34;;;17.99;41.88
42691;BME280;28306;55.744;37.578;2022-09-27T08:35:12;99465.66;;;17.97;41.78
42691;BME280;28306;55.744;37.578;2022-09-27T08:37:40;99472.38;;;18.07;41.78
42691;BME280;28306;55.744;37.578;2022-09-27T08:40:06;99467.00;;;18.07;41.66
42691;BME280;28306;55.744;37.578;2022-09-27T08:42:59;99474.19;;;18.13;41.58
42691;BME280;28306;55.744;37.578;2022-09-27T08:45:33;99472.78;;;18.10;41.90
42691;BME280;28306;55.744;37.578;2022-09-27T08:48:03;99481.66;;;18.11;41.66
42691;BME280;28306;55.744;37.578;2022-09-27T08:50:40;99474.78;;;18.15;41.05
42691;BME280;28306;55.744;37.578;2022-09-27T08:55:54;99469.91;;;18.24;42.24
42691;BME280;28306;55.744;37.578;2022-09-27T08:58:33;99458.47;;;18.28;41.05
42691;BME280;28306;55.744;37.578;2022-09-27T09:01:05;99460.28;;;18.34;40.91
42691;BME280;28306;55.744;37.578;2022-09-27T09:03:50;99459.59;;;18.39;40.80
42691;BME280;28306;55.744;37.578;2022-09-27T09:26:39;99470.00;;;18.35;40.45
42691;BME280;28306;55.744;37.578;2022-09-27T09:34:31;99469.91;;;18.24;40.17
42691;BME280;28306;55.744;37.578;2022-09-27T09:37:15;99471.19;;;18.21;39.96
42691;BME280;28306;55.744;37.578;2022-09-27T09:39:49;99459.00;;;18.18;40.79
42691;BME280;28306;55.744;37.578;2022-09-27T09:42:25;99463.06;;;18.28;40.64
42691;BME280;28306;55.744;37.578;2022-09-27T09:53:14;99459.03;;;18.49;40.23
42691;BME280;28306;55.744;37.578;2022-09-27T09:55:45;99463.16;;;18.51;39.29
42691;BME280;28306;55.744;37.578;2022-09-27T10:00:46;99459.50;;;18.46;39.95
42691;BME280;28306;55.744;37.578;2022-09-27T10:03:12;99453.31;;;18.45;40.33
42691;BME280;28306;55.744;37.578;2022-09-27T10:05:42;99447.56;;;18.42;40.14
42691;BME280;28306;55.744;37.578;2022-09-27T10:08:17;99457.47;;;18.41;40.43
42691;BME280;28306;55.744;37.578;2022-09-27T10:10:47;99448.94;;;18.44;41.38
42691;BME280;28306;55.744;37.578;2022-09-27T10:13:39;99451.31;;;18.52;41.09
42691;BME280;28306;55.744;37.578;2022-09-27T10:16:08;99452.41;;;18.51;40.12
42691;BME280;28306;55.744;37.578;2022-09-27T10:18:36;99443.25;;;18.52;40.52
42691;BME280;28306;55.744;37.578;2022-09-27T10:21:12;99451.94;;;18.54;39.88
42691;BME280;28306;55.744;37.578;2022-09-27T10:24:05;99454.63;;;18.54;39.93
42691;BME280;28306;55.744;37.578;2022-09-27T10:26:56;99447.91;;;18.45;39.81
42691;BME280;28306;55.744;37.578;2022-09-27T10:29:29;99457.09;;;18.56;40.69
42691;BME280;28306;55.744;37.578;2022-09-27T10:31:55;99450.75;;;18.50;39.91
42691;BME280;28306;55.744;37.578;2022-09-27T10:34:37;99449.47;;;18.53;40.13
42691;BME280;28306;55.744;37.578;2022-09-27T10:39:47;99438.50;;;18.36;39.41
42691;BME280;28306;55.744;37.578;2022-09-27T10:42:36;99442.06;;;18.48;39.92
42691;BME280;28306;55.744;37.578;2022-09-27T10:45:32;99441.63;;;18.51;40.49
42691;BME280;28306;55.744;37.578;2022-09-27T10:48:19;99436.56;;;18.43;39.62
42691;BME280;28306;55.744;37.578;2022-09-27T10:50:59;99437.94;;;18.46;39.39
42691;BME280;28306;55.744;37.578;2022-09-27T10:53:36;99432.09;;;18.49;39.61
42691;BME280;28306;55.744;37.578;2022-09-27T10:56:20;99431.78;;;18.57;39.44
42691;BME280;28306;55.744;37.578;2022-09-27T10:58:48;99428.28;;;18.57;39.22
42691;BME280;28306;55.744;37.578;2022-09-27T11:01:16;99416.31;;;18.52;39.44
42691;BME280;28306;55.744;37.578;2022-09-27T11:04:05;99442.34;;;18.59;38.85
42691;BME280;28306;55.744;37.578;2022-09-27T11:06:33;99421.69;;;18.52;39.12
42691;BME280;28306;55.744;37.578;2022-09-27T11:09:23;99423.69;;;18.57;39.22
42691;BME280;28306;55.744;37.578;2022-09-27T11:12:07;99429.47;;;18.61;39.72
42691;BME280;28306;55.744;37.578;2022-09-27T11:14:35;99420.78;;;18.59;38.78
42691;BME280;28306;55.744;37.578;2022-09-27T11:17:16;99425.13;;;18.60;39.52
42691;BME280;28306;55.744;37.578;2022-09-27T11:22:45;99419.97;;;18.58;39.54
42691;BME280;28306;55.744;37.578;2022-09-27T11:25:37;99421.53;;;18.66;38.21
42691;BME280;28306;55.744;37.578;2022-09-27T11:28:32;99418.81;;;18.66;37.79
42691;BME280;28306;55.744;37.578;2022-09-27T11:31:39;99417.00;;;18.78;38.14
42691;BME280;28306;55.744;37.578;2022-09-27T11:53:44;99402.75;;;18.89;38.05
42691;BME280;28306;55.744;37.578;2022-09-27T11:56:19;99393.84;;;18.89;38.28
42691;BME280;28306;55.744;37.578;2022-09-27T12:10:28;99401.56;;;18.85;37.99
42691;BME280;28306;55.744;37.578;2022-09-27T12:12:56;99403.06;;;18.81;37.83
42691;BME280;28306;55.744;37.578;2022-09-27T12:15:26;99380.06;;;18.67;37.76
42691;BME280;28306;55.744;37.578;2022-09-27T12:20:36;99376.53;;;18.66;37.61
42691;BME280;28306;55.744;37.578;2022-09-27T12:23:09;99381.59;;;18.75;37.68
42691;BME280;28306;55.744;37.578;2022-09-27T12:25:51;99374.78;;;18.72;37.78
42691;BME280;28306;55.744;37.578;2022-09-27T12:28:36;99374.34;;;18.75;37.27
42691;BME280;28306;55.744;37.578;2022-09-27T12:31:19;99372.00;;;18.79;38.88
42691;BME280;28306;55.744;37.578;2022-09-27T12:33:50;99366.72;;;18.72;37.53
42691;BME280;28306;55.744;37.578;2022-09-27T12:36:22;99362.25;;;18.66;37.46
42691;BME280;28306;55.744;37.578;2022-09-27T12:39:09;99368.47;;;18.78;38.48
42691;BME280;28306;55.744;37.578;2022-09-27T12:41:46;99350.66;;;18.65;37.59
42691;BME280;28306;55.744;37.578;2022-09-27T12:44:36;99367.06;;;18.76;37.31
42691;BME280;28306;55.744;37.578;2022-09-27T12:52:17;99352.91;;;18.80;37.54
42691;BME280;28306;55.744;37.578;2022-09-27T12:57:59;99352.00;;;18.86;36.37
42691;BME280;28306;55.744;37.578;2022-09-27T13:00:31;99356.25;;;19.06;36.72
42691;BME280;28306;55.744;37.578;2022-09-27T13:06:17;99357.41;;;18.98;36.61
42691;BME280;28306;55.744;37.578;2022-09-27T13:13:58;99352.94;;;19.04;36.73
42691;BME280;28306;55.744;37.578;2022-09-27T13:16:27;99334.91;;;18.93;36.59
42691;BME280;28306;55.744;37.578;2022-09-27T13:18:58;99353.78;;;19.04;36.57
42691;BME280;28306;55.744;37.578;2022-09-27T13:33:32;99340.41;;;19.09;36.78
42691;BME280;28306;55.744;37.578;2022-09-27T13:38:33;99342.28;;;18.97;36.69
42691;BME280;28306;55.744;37.578;2022-09-27T13:41:17;99339.34;;;18.99;36.67
42691;BME280;28306;55.744;37.578;2022-09-27T13:44:10;99339.59;;;18.97;37.53
42691;BME280;28306;55.744;37.578;2022-09-27T13:46:47;99337.94;;;18.84;36.55
42691;BME280;28306;55.744;37.578;2022-09-27T13:49:44;99344.41;;;18.95;37.69
42691;BME280;28306;55.744;37.578;2022-09-27T13:55:40;99338.28;;;18.88;37.24
42691;BME280;28306;55.744;37.578;2022-09-27T14:01:28;99335.06;;;18.79;37.67
42691;BME280;28306;55.744;37.578;2022-09-27T14:04:02;99329.69;;;18.79;37.19
42691;BME280;28306;55.744;37.578;2022-09-27T14:06:31;99324.78;;;18.76;37.66
42691;BME280;28306;55.744;37.578;2022-09-27T14:09:04;99321.47;;;18.74;37.64
42691;BME280;28306;55.744;37.578;2022-09-27T14:11:39;99331.44;;;18.73;37.83
42691;BME280;28306;55.744;37.578;2022-09-27T14:14:14;99336.03;;;18.73;38.11
42691;BME280;28306;55.744;37.578;2022-09-27T14:16:46;99314.78;;;18.65;37.54
42691;BME280;28306;55.744;37.578;2022-09-27T14:19:21;99320.66;;;18.73;37.66
42691;BME280;28306;55.744;37.578;2022-09-27T14:21:49;99323.38;;;18.73;38.01
42691;BME280;28306;55.744;37.578;2022-09-27T14:24:31;99321.94;;;18.71;37.70
42691;BME280;28306;55.744;37.578;2022-09-27T14:27:21;99322.16;;;18.69;37.86
42691;BME280;28306;55.744;37.578;2022-09-27T14:32:30;99329.09;;;18.65;38.83
42691;BME280;28306;55.744;37.578;2022-09-27T14:37:29;99323.47;;;18.67;38.78
42691;BME280;28306;55.744;37.578;2022-09-27T14:40:16;99321.00;;;18.65;38.70
42691;BME280;28306;55.744;37.578;2022-09-27T14:42:43;99325.31;;;18.66;38.63
42691;BME280;28306;55.744;37.578;2022-09-27T14:47:51;99333.06;;;18.63;38.79
42691;BME280;28306;55.744;37.578;2022-09-27T14:52:43;99314.16;;;18.51;38.88
42691;BME280;28306;55.744;37.578;2022-09-27T14:55:16;99315.34;;;18.55;38.82
42691;BME280;28306;55.744;37.578;2022-09-27T14:57:46;99319.34;;;18.64;38.83
42691;BME280;28306;55.744;37.578;2022-09-27T15:00:28;99323.91;;;18.52;39.06
42691;BME280;28306;55.744;37.578;2022-09-27T15:03:02;99302.41;;;18.33;39.23
42691;BME280;28306;55.744;37.578;2022-09-27T15:05:32;99313.91;;;18.41;39.61
42691;BME280;28306;55.744;37.578;2022-09-27T15:08:02;99309.22;;;18.36;39.10
42691;BME280;28306;55.744;37.578;2022-09-27T15:10:33;99306.75;;;18.34;39.72
42691;BME280;28306;55.744;37.578;2022-09-27T15:13:00;99306.97;;;18.33;39.25
42691;BME280;28306;55.744;37.578;2022-09-27T15:15:33;99296.53;;;18.25;39.89
42691;BME280;28306;55.744;37.578;2022-09-27T15:18:00;99311.34;;;18.34;39.96
42691;BME280;28306;55.744;37.578;2022-09-27T15:20:29;99307.22;;;18.31;40.03
42691;BME280;28306;55.744;37.578;2022-09-27T15:23:04;99304.53;;;18.31;39.97
42691;BME280;28306;55.744;37.578;2022-09-27T15:25:40;99311.41;;;18.27;39.58
42691;BME280;28306;55.744;37.578;2022-09-27T15:30:40;99286.53;;;18.13;39.67
42691;BME280;28306;55.744;37.578;2022-09-27T15:33:18;99301.47;;;18.28;40.42
42691;BME280;28306;55.744;37.578;2022-09-27T15:35:51;99293.47;;;18.21;39.94
42691;BME280;28306;55.744;37.578;2022-09-27T15:43:28;99282.34;;;18.17;40.24
42691;BME280;28306;55.744;37.578;2022-09-27T15:45:59;99281.75;;;18.15;40.48
42691;BME280;28306;55.744;37.578;2022-09-27T15:48:28;99279.97;;;18.09;40.45
42691;BME280;28306;55.744;37.578;2022-09-27T15:50:56;99281.25;;;18.07;40.43
42691;BME280;28306;55.744;37.578;2022-09-27T15:55:57;99279.25;;;18.02;40.57
42691;BME280;28306;55.744;37.578;2022-09-27T15:58:24;99282.78;;;18.03;40.64
42691;BME280;28306;55.744;37.578;2022-09-27T16:00:55;99276.41;;;17.97;40.14
42691;BME280;28306;55.744;37.578;2022-09-27T16:03:22;99283.81;;;18.01;40.43
42691;BME280;28306;55.744;37.578;2022-09-27T16:05:48;99250.25;;;17.86;40.77
42691;BME280;28306;55.744;37.578;2022-09-27T16:08:14;99273.28;;;18.00;40.89
42691;BME280;28306;55.744;37.578;2022-09-27T16:10:44;99274.19;;;17.94;40.98
42691;BME280;28306;55.744;37.578;2022-09-27T16:13:11;99266.34;;;17.92;41.00
42691;BME280;28306;55.744;37.578;2022-09-27T16:15:36;99268.00;;;17.93;40.56
42691;BME280;28306;55.744;37.578;2022-09-27T16:18:02;99263.19;;;17.95;40.98
42691;BME280;28306;55.744;37.578;2022-09-27T16:20:28;99252.88;;;17.92;41.07